sensor_id;sensor_type;location;lat;lon;timestamp;P1;durP1;ratioP1;P2;durP2;ratioP2
8247;SDS011;4164;49.844;8.830;2023-06-24T00:00:57;5.83;;;5.00;;
8247;SDS011;4164;49.844;8.830;2023-06-24T00:03:23;6.00;;;4.50;;
8247;SDS011;4164;49.844;8.830;2023-06-24T00:05:49;6.23;;;5.10;;
8247;SDS011;4164;49.844;8.830;2023-06-24T00:08:15;5.57;;;5.07;;
8247;SDS011;4164;49.844;8.830;2023-06-24T00:10:44;11.30;;;5.13;;
8247;SDS011;4164;49.844;8.830;2023-06-24T00:13:11;5.50;;;5.00;;
8247;SDS011;4164;49.844;8.830;2023-06-24T00:15:37;8.10;;;4.97;;
8247;SDS011;4164;49.844;8.830;2023-06-24T00:18:07;5.23;;;4.57;;
8247;SDS011;4164;49.844;8.830;2023-06-24T00:20:36;6.10;;;5.40;;
8247;SDS011;4164;49.844;8.830;2023-06-24T00:23:02;8.47;;;5.17;;
8247;SDS011;4164;49.844;8.830;2023-06-24T00:25:28;5.93;;;5.33;;
8247;SDS011;4164;49.844;8.830;2023-06-24T00:27:55;7.07;;;5.57;;
8247;SDS011;4164;49.844;8.830;2023-06-24T00:30:21;9.83;;;5.20;;
8247;SDS011;4164;49.844;8.830;2023-06-24T00:32:47;7.20;;;5.43;;
8247;SDS011;4164;49.844;8.830;2023-06-24T00:35:12;7.07;;;5.27;;
8247;SDS011;4164;49.844;8.830;2023-06-24T00:37:39;6.73;;;5.03;;
8247;SDS011;4164;49.844;8.830;2023-06-24T00:40:05;5.93;;;4.60;;
8247;SDS011;4164;49.844;8.830;2023-06-24T00:42:35;6.27;;;5.57;;
8247;SDS011;4164;49.844;8.830;2023-06-24T00:45:00;6.77;;;5.57;;
8247;SDS011;4164;49.844;8.830;2023-06-24T00:47:29;5.13;;;4.63;;
8247;SDS011;4164;49.844;8.830;2023-06-24T00:49:56;5.60;;;5.00;;
8247;SDS011;4164;49.844;8.830;2023-06-24T00:52:22;6.40;;;5.03;;
8247;SDS011;4164;49.844;8.830;2023-06-24T00:54:47;7.10;;;5.50;;
8247;SDS011;4164;49.844;8.830;2023-06-24T00:57:13;6.57;;;5.57;;
8247;SDS011;4164;49.844;8.830;2023-06-24T00:59:38;7.13;;;5.37;;
8247;SDS011;4164;49.844;8.830;2023-06-24T01:02:08;6.83;;;5.30;;
8247;SDS011;4164;49.844;8.830;2023-06-24T01:04:34;5.80;;;4.83;;
8247;SDS011;4164;49.844;8.830;2023-06-24T01:07:00;6.03;;;5.23;;
8247;SDS011;4164;49.844;8.830;2023-06-24T01:09:26;5.80;;;5.20;;
8247;SDS011;4164;49.844;8.830;2023-06-24T01:11:52;5.37;;;4.87;;
8247;SDS011;4164;49.844;8.830;2023-06-24T01:14:18;6.67;;;5.23;;
8247;SDS011;4164;49.844;8.830;2023-06-24T01:22:35;6.43;;;5.73;;
8247;SDS011;4164;49.844;8.830;2023-06-24T01:25:33;6.80;;;6.10;;
8247;SDS011;4164;49.844;8.830;2023-06-24T01:33:45;7.47;;;6.50;;
8247;SDS011;4164;49.844;8.830;2023-06-24T01:36:15;9.27;;;6.10;;
8247;SDS011;4164;49.844;8.830;2023-06-24T01:38:46;7.23;;;6.17;;
8247;SDS011;4164;49.844;8.830;2023-06-24T01:41:24;7.40;;;6.63;;
8247;SDS011;4164;49.844;8.830;2023-06-24T01:43:54;8.30;;;6.20;;
8247;SDS011;4164;49.844;8.830;2023-06-24T01:46:22;9.00;;;6.80;;
8247;SDS011;4164;49.844;8.830;2023-06-24T01:48:50;7.17;;;6.47;;
8247;SDS011;4164;49.844;8.830;2023-06-24T01:51:19;7.30;;;6.20;;
8247;SDS011;4164;49.844;8.830;2023-06-24T01:53:49;7.03;;;5.73;;
8247;SDS011;4164;49.844;8.830;2023-06-24T01:56:18;7.50;;;6.70;;
8247;SDS011;4164;49.844;8.830;2023-06-24T01:58:46;7.40;;;6.63;;
8247;SDS011;4164;49.844;8.830;2023-06-24T02:01:15;9.70;;;6.90;;
8247;SDS011;4164;49.844;8.830;2023-06-24T02:03:42;7.10;;;6.40;;
8247;SDS011;4164;49.844;8.830;2023-06-24T02:06:09;8.53;;;6.30;;
8247;SDS011;4164;49.844;8.830;2023-06-24T02:08:38;7.47;;;6.67;;
8247;SDS011;4164;49.844;8.830;2023-06-24T02:11:06;7.63;;;6.43;;
8247;SDS011;4164;49.844;8.830;2023-06-24T02:13:33;6.93;;;5.90;;
8247;SDS011;4164;49.844;8.830;2023-06-24T02:16:03;8.00;;;6.00;;
8247;SDS011;4164;49.844;8.830;2023-06-24T02:18:31;6.33;;;5.73;;
8247;SDS011;4164;49.844;8.830;2023-06-24T02:21:00;8.30;;;5.70;;
8247;SDS011;4164;49.844;8.830;2023-06-24T02:23:26;7.00;;;6.30;;
8247;SDS011;4164;49.844;8.830;2023-06-24T02:25:54;7.30;;;5.70;;
8247;SDS011;4164;49.844;8.830;2023-06-24T02:28:20;8.03;;;6.17;;
8247;SDS011;4164;49.844;8.830;2023-06-24T02:30:47;7.47;;;5.90;;
8247;SDS011;4164;49.844;8.830;2023-06-24T02:33:13;7.37;;;5.70;;
8247;SDS011;4164;49.844;8.830;2023-06-24T02:35:39;6.10;;;5.30;;
8247;SDS011;4164;49.844;8.830;2023-06-24T02:38:06;7.30;;;5.90;;
8247;SDS011;4164;49.844;8.830;2023-06-24T02:40:32;6.57;;;5.97;;
8247;SDS011;4164;49.844;8.830;2023-06-24T02:42:59;6.43;;;5.80;;
8247;SDS011;4164;49.844;8.830;2023-06-24T02:45:25;6.60;;;5.60;;
8247;SDS011;4164;49.844;8.830;2023-06-24T02:47:51;7.10;;;5.60;;
8247;SDS011;4164;49.844;8.830;2023-06-24T02:50:18;6.70;;;5.83;;
8247;SDS011;4164;49.844;8.830;2023-06-24T02:52:44;6.53;;;5.93;;
8247;SDS011;4164;49.844;8.830;2023-06-24T02:55:10;5.80;;;5.20;;
8247;SDS011;4164;49.844;8.830;2023-06-24T02:57:36;6.60;;;5.57;;
8247;SDS011;4164;49.844;8.830;2023-06-24T03:00:04;6.67;;;5.80;;
8247;SDS011;4164;49.844;8.830;2023-06-24T03:02:30;7.77;;;5.57;;
8247;SDS011;4164;49.844;8.830;2023-06-24T03:04:57;7.00;;;5.83;;
8247;SDS011;4164;49.844;8.830;2023-06-24T03:07:27;6.37;;;5.77;;
8247;SDS011;4164;49.844;8.830;2023-06-24T03:09:53;6.87;;;5.73;;
8247;SDS011;4164;49.844;8.830;2023-06-24T03:12:19;8.07;;;5.80;;
8247;SDS011;4164;49.844;8.830;2023-06-24T03:14:44;9.30;;;5.90;;
8247;SDS011;4164;49.844;8.830;2023-06-24T03:17:10;7.00;;;6.27;;
8247;SDS011;4164;49.844;8.830;2023-06-24T03:19:36;6.47;;;5.43;;
8247;SDS011;4164;49.844;8.830;2023-06-24T03:22:03;8.73;;;5.90;;
8247;SDS011;4164;49.844;8.830;2023-06-24T03:24:28;7.37;;;6.30;;
8247;SDS011;4164;49.844;8.830;2023-06-24T03:26:54;6.63;;;5.73;;
8247;SDS011;4164;49.844;8.830;2023-06-24T03:29:22;6.83;;;6.13;;
8247;SDS011;4164;49.844;8.830;2023-06-24T03:31:48;6.80;;;6.03;;
8247;SDS011;4164;49.844;8.830;2023-06-24T03:34:13;7.97;;;5.57;;
8247;SDS011;4164;49.844;8.830;2023-06-24T03:36:41;7.63;;;6.47;;
8247;SDS011;4164;49.844;8.830;2023-06-24T03:39:07;6.50;;;5.70;;
8247;SDS011;4164;49.844;8.830;2023-06-24T03:41:32;7.63;;;6.53;;
8247;SDS011;4164;49.844;8.830;2023-06-24T03:43:58;6.87;;;5.77;;
8247;SDS011;4164;49.844;8.830;2023-06-24T03:46:24;7.67;;;5.93;;
8247;SDS011;4164;49.844;8.830;2023-06-24T03:48:50;7.13;;;6.10;;
8247;SDS011;4164;49.844;8.830;2023-06-24T03:51:16;8.67;;;6.20;;
8247;SDS011;4164;49.844;8.830;2023-06-24T03:53:42;6.50;;;5.87;;
8247;SDS011;4164;49.844;8.830;2023-06-24T03:56:07;7.97;;;6.07;;
8247;SDS011;4164;49.844;8.830;2023-06-24T03:58:33;6.43;;;5.80;;
8247;SDS011;4164;49.844;8.830;2023-06-24T04:00:59;6.67;;;5.90;;
8247;SDS011;4164;49.844;8.830;2023-06-24T04:03:27;9.07;;;6.23;;
8247;SDS011;4164;49.844;8.830;2023-06-24T04:05:53;7.57;;;6.40;;
8247;SDS011;4164;49.844;8.830;2023-06-24T04:08:19;6.97;;;5.60;;
8247;SDS011;4164;49.844;8.830;2023-06-24T04:10:46;7.37;;;5.83;;
8247;SDS011;4164;49.844;8.830;2023-06-24T04:13:11;6.87;;;5.90;;
8247;SDS011;4164;49.844;8.830;2023-06-24T04:15:37;6.63;;;5.90;;
8247;SDS011;4164;49.844;8.830;2023-06-24T04:18:02;7.77;;;6.27;;
8247;SDS011;4164;49.844;8.830;2023-06-24T04:20:28;8.00;;;6.10;;
8247;SDS011;4164;49.844;8.830;2023-06-24T04:22:54;7.43;;;6.27;;
8247;SDS011;4164;49.844;8.830;2023-06-24T04:25:19;8.10;;;5.70;;
8247;SDS011;4164;49.844;8.830;2023-06-24T04:27:45;8.43;;;5.83;;
8247;SDS011;4164;49.844;8.830;2023-06-24T04:30:10;6.87;;;6.07;;
8247;SDS011;4164;49.844;8.830;2023-06-24T04:32:37;7.03;;;6.00;;
8247;SDS011;4164;49.844;8.830;2023-06-24T04:35:02;7.37;;;6.00;;
8247;SDS011;4164;49.844;8.830;2023-06-24T04:37:29;8.30;;;6.63;;
8247;SDS011;4164;49.844;8.830;2023-06-24T04:39:55;7.27;;;6.47;;
8247;SDS011;4164;49.844;8.830;2023-06-24T04:42:21;10.23;;;6.33;;
8247;SDS011;4164;49.844;8.830;2023-06-24T04:44:47;9.00;;;6.80;;
8247;SDS011;4164;49.844;8.830;2023-06-24T04:47:16;9.93;;;6.43;;
8247;SDS011;4164;49.844;8.830;2023-06-24T04:49:42;6.40;;;5.63;;
8247;SDS011;4164;49.844;8.830;2023-06-24T04:52:08;8.70;;;6.53;;
8247;SDS011;4164;49.844;8.830;2023-06-24T04:54:33;8.33;;;5.90;;
8247;SDS011;4164;49.844;8.830;2023-06-24T04:56:59;6.07;;;5.47;;
8247;SDS011;4164;49.844;8.830;2023-06-24T04:59:25;7.17;;;5.70;;
8247;SDS011;4164;49.844;8.830;2023-06-24T05:01:50;9.20;;;5.87;;
8247;SDS011;4164;49.844;8.830;2023-06-24T05:04:16;6.83;;;6.00;;
8247;SDS011;4164;49.844;8.830;2023-06-24T05:06:41;6.50;;;5.77;;
8247;SDS011;4164;49.844;8.830;2023-06-24T05:09:07;7.47;;;4.87;;
8247;SDS011;4164;49.844;8.830;2023-06-24T05:11:35;7.63;;;5.67;;
8247;SDS011;4164;49.844;8.830;2023-06-24T05:14:00;7.07;;;5.50;;
8247;SDS011;4164;49.844;8.830;2023-06-24T05:16:26;8.30;;;5.87;;
8247;SDS011;4164;49.844;8.830;2023-06-24T05:18:51;7.70;;;5.70;;
8247;SDS011;4164;49.844;8.830;2023-06-24T05:21:17;7.03;;;5.13;;
8247;SDS011;4164;49.844;8.830;2023-06-24T05:23:43;5.90;;;4.77;;
8247;SDS011;4164;49.844;8.830;2023-06-24T05:26:08;7.30;;;5.07;;
8247;SDS011;4164;49.844;8.830;2023-06-24T05:28:34;6.10;;;5.50;;
8247;SDS011;4164;49.844;8.830;2023-06-24T05:30:59;6.37;;;5.57;;
8247;SDS011;4164;49.844;8.830;2023-06-24T05:33:25;5.93;;;4.90;;
8247;SDS011;4164;49.844;8.830;2023-06-24T05:35:50;5.63;;;5.13;;
8247;SDS011;4164;49.844;8.830;2023-06-24T05:38:16;7.50;;;5.30;;
8247;SDS011;4164;49.844;8.830;2023-06-24T05:40:41;5.63;;;4.57;;
8247;SDS011;4164;49.844;8.830;2023-06-24T05:43:07;6.40;;;5.53;;
8247;SDS011;4164;49.844;8.830;2023-06-24T05:45:32;6.77;;;4.80;;
8247;SDS011;4164;49.844;8.830;2023-06-24T05:47:58;7.83;;;5.00;;
8247;SDS011;4164;49.844;8.830;2023-06-24T05:50:23;6.57;;;5.10;;
8247;SDS011;4164;49.844;8.830;2023-06-24T05:52:49;8.20;;;5.00;;
8247;SDS011;4164;49.844;8.830;2023-06-24T05:55:14;6.00;;;4.50;;
8247;SDS011;4164;49.844;8.830;2023-06-24T05:57:40;6.47;;;5.07;;
8247;SDS011;4164;49.844;8.830;2023-06-24T06:00:06;6.77;;;4.73;;
8247;SDS011;4164;49.844;8.830;2023-06-24T06:02:32;4.80;;;4.40;;
8247;SDS011;4164;49.844;8.830;2023-06-24T06:04:57;7.80;;;4.87;;
8247;SDS011;4164;49.844;8.830;2023-06-24T06:07:23;6.27;;;4.90;;
8247;SDS011;4164;49.844;8.830;2023-06-24T06:09:48;11.40;;;6.07;;
8247;SDS011;4164;49.844;8.830;2023-06-24T06:12:14;6.73;;;5.27;;
8247;SDS011;4164;49.844;8.830;2023-06-24T06:14:39;7.80;;;4.97;;
8247;SDS011;4164;49.844;8.830;2023-06-24T06:17:05;8.00;;;5.10;;
8247;SDS011;4164;49.844;8.830;2023-06-24T06:19:30;8.13;;;5.30;;
8247;SDS011;4164;49.844;8.830;2023-06-24T06:21:56;5.77;;;4.97;;
8247;SDS011;4164;49.844;8.830;2023-06-24T06:24:21;7.27;;;5.23;;
8247;SDS011;4164;49.844;8.830;2023-06-24T06:26:47;6.90;;;5.10;;
8247;SDS011;4164;49.844;8.830;2023-06-24T06:29:12;6.67;;;4.90;;
8247;SDS011;4164;49.844;8.830;2023-06-24T06:31:38;5.37;;;4.87;;
8247;SDS011;4164;49.844;8.830;2023-06-24T06:34:04;5.33;;;4.83;;
8247;SDS011;4164;49.844;8.830;2023-06-24T06:36:30;6.23;;;5.20;;
8247;SDS011;4164;49.844;8.830;2023-06-24T06:38:55;5.90;;;4.93;;
8247;SDS011;4164;49.844;8.830;2023-06-24T06:41:21;6.47;;;5.53;;
8247;SDS011;4164;49.844;8.830;2023-06-24T06:43:49;5.67;;;5.07;;
8247;SDS011;4164;49.844;8.830;2023-06-24T06:46:16;6.50;;;5.80;;
8247;SDS011;4164;49.844;8.830;2023-06-24T06:48:41;6.33;;;5.50;;
8247;SDS011;4164;49.844;8.830;2023-06-24T06:51:07;7.33;;;5.27;;
8247;SDS011;4164;49.844;8.830;2023-06-24T06:53:32;7.20;;;5.33;;
8247;SDS011;4164;49.844;8.830;2023-06-24T06:55:58;6.20;;;5.13;;
8247;SDS011;4164;49.844;8.830;2023-06-24T06:58:24;5.50;;;5.00;;
8247;SDS011;4164;49.844;8.830;2023-06-24T07:00:49;5.77;;;5.17;;
8247;SDS011;4164;49.844;8.830;2023-06-24T07:03:15;5.87;;;4.93;;
8247;SDS011;4164;49.844;8.830;2023-06-24T07:05:41;6.70;;;5.50;;
8247;SDS011;4164;49.844;8.830;2023-06-24T07:08:06;6.57;;;5.37;;
8247;SDS011;4164;49.844;8.830;2023-06-24T07:10:33;8.07;;;5.03;;
8247;SDS011;4164;49.844;8.830;2023-06-24T07:12:58;6.00;;;5.20;;
8247;SDS011;4164;49.844;8.830;2023-06-24T07:15:27;8.70;;;5.10;;
8247;SDS011;4164;49.844;8.830;2023-06-24T07:17:53;6.17;;;5.13;;
8247;SDS011;4164;49.844;8.830;2023-06-24T07:20:19;5.97;;;5.37;;
8247;SDS011;4164;49.844;8.830;2023-06-24T07:22:45;9.13;;;5.07;;
8247;SDS011;4164;49.844;8.830;2023-06-24T07:25:11;7.23;;;5.43;;
8247;SDS011;4164;49.844;8.830;2023-06-24T07:27:37;7.57;;;5.40;;
8247;SDS011;4164;49.844;8.830;2023-06-24T07:30:03;5.23;;;4.63;;
8247;SDS011;4164;49.844;8.830;2023-06-24T07:32:30;9.60;;;5.23;;
8247;SDS011;4164;49.844;8.830;2023-06-24T07:34:55;6.67;;;5.00;;
8247;SDS011;4164;49.844;8.830;2023-06-24T07:37:21;6.20;;;5.10;;
8247;SDS011;4164;49.844;8.830;2023-06-24T07:39:47;6.70;;;5.83;;
8247;SDS011;4164;49.844;8.830;2023-06-24T07:42:13;6.80;;;4.90;;
8247;SDS011;4164;49.844;8.830;2023-06-24T07:44:43;7.27;;;5.87;;
8247;SDS011;4164;49.844;8.830;2023-06-24T07:47:12;6.03;;;5.20;;
8247;SDS011;4164;49.844;8.830;2023-06-24T07:49:37;6.63;;;5.60;;
8247;SDS011;4164;49.844;8.830;2023-06-24T07:52:03;5.97;;;5.43;;
8247;SDS011;4164;49.844;8.830;2023-06-24T07:54:29;6.03;;;5.30;;
8247;SDS011;4164;49.844;8.830;2023-06-24T07:56:55;5.73;;;5.20;;
8247;SDS011;4164;49.844;8.830;2023-06-24T07:59:21;8.07;;;5.47;;
8247;SDS011;4164;49.844;8.830;2023-06-24T08:01:46;6.17;;;5.50;;
8247;SDS011;4164;49.844;8.830;2023-06-24T08:04:12;6.23;;;5.43;;
8247;SDS011;4164;49.844;8.830;2023-06-24T08:06:38;6.23;;;5.63;;
8247;SDS011;4164;49.844;8.830;2023-06-24T08:09:04;5.87;;;5.20;;
8247;SDS011;4164;49.844;8.830;2023-06-24T08:11:29;5.80;;;5.13;;
8247;SDS011;4164;49.844;8.830;2023-06-24T08:13:55;5.50;;;4.90;;
8247;SDS011;4164;49.844;8.830;2023-06-24T08:16:20;7.30;;;5.53;;
8247;SDS011;4164;49.844;8.830;2023-06-24T08:18:46;6.87;;;5.03;;
8247;SDS011;4164;49.844;8.830;2023-06-24T08:21:11;5.40;;;4.70;;
8247;SDS011;4164;49.844;8.830;2023-06-24T08:23:37;7.10;;;5.23;;
8247;SDS011;4164;49.844;8.830;2023-06-24T08:26:03;6.67;;;5.10;;
8247;SDS011;4164;49.844;8.830;2023-06-24T08:28:28;5.83;;;5.33;;
8247;SDS011;4164;49.844;8.830;2023-06-24T08:30:54;6.40;;;4.93;;
8247;SDS011;4164;49.844;8.830;2023-06-24T08:33:19;7.17;;;5.30;;
8247;SDS011;4164;49.844;8.830;2023-06-24T08:35:45;5.77;;;5.00;;
8247;SDS011;4164;49.844;8.830;2023-06-24T08:38:10;5.97;;;5.37;;
8247;SDS011;4164;49.844;8.830;2023-06-24T08:40:36;6.90;;;4.57;;
8247;SDS011;4164;49.844;8.830;2023-06-24T08:43:05;5.67;;;4.70;;
8247;SDS011;4164;49.844;8.830;2023-06-24T08:45:31;5.13;;;4.47;;
8247;SDS011;4164;49.844;8.830;2023-06-24T08:47:57;5.80;;;4.47;;
8247;SDS011;4164;49.844;8.830;2023-06-24T08:50:23;5.27;;;4.77;;
8247;SDS011;4164;49.844;8.830;2023-06-24T08:52:56;9.33;;;4.80;;
8247;SDS011;4164;49.844;8.830;2023-06-24T08:55:23;6.17;;;4.17;;
8247;SDS011;4164;49.844;8.830;2023-06-24T08:57:52;4.27;;;3.87;;
8247;SDS011;4164;49.844;8.830;2023-06-24T09:00:18;5.63;;;4.40;;
8247;SDS011;4164;49.844;8.830;2023-06-24T09:02:44;5.50;;;4.50;;
8247;SDS011;4164;49.844;8.830;2023-06-24T09:05:10;6.30;;;4.90;;
8247;SDS011;4164;49.844;8.830;2023-06-24T09:07:36;6.10;;;4.57;;
8247;SDS011;4164;49.844;8.830;2023-06-24T09:10:02;6.60;;;4.53;;
8247;SDS011;4164;49.844;8.830;2023-06-24T09:12:28;6.03;;;4.33;;
8247;SDS011;4164;49.844;8.830;2023-06-24T09:14:57;7.77;;;6.03;;
8247;SDS011;4164;49.844;8.830;2023-06-24T09:17:23;7.77;;;5.27;;
8247;SDS011;4164;49.844;8.830;2023-06-24T09:19:49;5.93;;;5.33;;
8247;SDS011;4164;49.844;8.830;2023-06-24T09:22:15;8.73;;;5.53;;
8247;SDS011;4164;49.844;8.830;2023-06-24T09:24:44;5.00;;;4.37;;
8247;SDS011;4164;49.844;8.830;2023-06-24T09:27:12;6.17;;;4.90;;
8247;SDS011;4164;49.844;8.830;2023-06-24T09:29:39;5.37;;;4.10;;
8247;SDS011;4164;49.844;8.830;2023-06-24T09:32:06;5.93;;;4.70;;
8247;SDS011;4164;49.844;8.830;2023-06-24T09:34:32;5.30;;;4.83;;
8247;SDS011;4164;49.844;8.830;2023-06-24T09:36:59;7.63;;;4.87;;
8247;SDS011;4164;49.844;8.830;2023-06-24T09:39:25;5.43;;;4.67;;
8247;SDS011;4164;49.844;8.830;2023-06-24T09:41:59;5.33;;;4.57;;
8247;SDS011;4164;49.844;8.830;2023-06-24T09:44:28;6.27;;;4.50;;
8247;SDS011;4164;49.844;8.830;2023-06-24T09:46:54;4.77;;;4.27;;
8247;SDS011;4164;49.844;8.830;2023-06-24T09:49:21;6.57;;;5.07;;
8247;SDS011;4164;49.844;8.830;2023-06-24T09:51:48;5.47;;;4.20;;
8247;SDS011;4164;49.844;8.830;2023-06-24T09:54:15;6.20;;;4.23;;
8247;SDS011;4164;49.844;8.830;2023-06-24T09:56:50;5.23;;;4.17;;
8247;SDS011;4164;49.844;8.830;2023-06-24T09:59:18;5.07;;;4.27;;
8247;SDS011;4164;49.844;8.830;2023-06-24T10:01:48;4.50;;;4.03;;
8247;SDS011;4164;49.844;8.830;2023-06-24T10:04:17;4.13;;;3.73;;
8247;SDS011;4164;49.844;8.830;2023-06-24T10:06:44;4.97;;;3.87;;
8247;SDS011;4164;49.844;8.830;2023-06-24T10:09:10;4.90;;;4.23;;
8247;SDS011;4164;49.844;8.830;2023-06-24T10:11:38;4.27;;;3.87;;
8247;SDS011;4164;49.844;8.830;2023-06-24T10:14:04;5.17;;;4.67;;
8247;SDS011;4164;49.844;8.830;2023-06-24T10:16:30;5.10;;;4.27;;
8247;SDS011;4164;49.844;8.830;2023-06-24T10:19:04;5.00;;;4.13;;
8247;SDS011;4164;49.844;8.830;2023-06-24T10:21:47;4.70;;;4.30;;
8247;SDS011;4164;49.844;8.830;2023-06-24T10:24:38;6.13;;;4.03;;
8247;SDS011;4164;49.844;8.830;2023-06-24T10:27:08;4.50;;;3.67;;
8247;SDS011;4164;49.844;8.830;2023-06-24T10:29:38;4.87;;;4.33;;
8247;SDS011;4164;49.844;8.830;2023-06-24T10:34:43;6.47;;;4.50;;
8247;SDS011;4164;49.844;8.830;2023-06-24T10:37:14;5.07;;;4.57;;
8247;SDS011;4164;49.844;8.830;2023-06-24T10:39:40;4.23;;;3.87;;
8247;SDS011;4164;49.844;8.830;2023-06-24T10:42:56;4.23;;;3.70;;
8247;SDS011;4164;49.844;8.830;2023-06-24T10:47:34;5.57;;;3.60;;
8247;SDS011;4164;49.844;8.830;2023-06-24T10:50:00;5.93;;;4.13;;
8247;SDS011;4164;49.844;8.830;2023-06-24T10:52:25;5.77;;;3.77;;
8247;SDS011;4164;49.844;8.830;2023-06-24T10:54:52;5.93;;;3.57;;
8247;SDS011;4164;49.844;8.830;2023-06-24T10:57:25;4.83;;;3.80;;
8247;SDS011;4164;49.844;8.830;2023-06-24T10:59:52;4.00;;;3.60;;
8247;SDS011;4164;49.844;8.830;2023-06-24T11:02:20;7.30;;;4.20;;
8247;SDS011;4164;49.844;8.830;2023-06-24T11:04:51;6.67;;;4.00;;
8247;SDS011;4164;49.844;8.830;2023-06-24T11:07:20;4.10;;;3.70;;
8247;SDS011;4164;49.844;8.830;2023-06-24T11:09:50;3.90;;;3.50;;
8247;SDS011;4164;49.844;8.830;2023-06-24T11:12:28;3.30;;;3.00;;
8247;SDS011;4164;49.844;8.830;2023-06-24T11:15:05;3.73;;;2.90;;
8247;SDS011;4164;49.844;8.830;2023-06-24T11:17:36;3.83;;;3.43;;
8247;SDS011;4164;49.844;8.830;2023-06-24T11:20:06;4.17;;;3.63;;
8247;SDS011;4164;49.844;8.830;2023-06-24T11:22:33;3.27;;;3.07;;
8247;SDS011;4164;49.844;8.830;2023-06-24T11:24:59;4.43;;;3.30;;
8247;SDS011;4164;49.844;8.830;2023-06-24T11:27:28;3.57;;;3.10;;
8247;SDS011;4164;49.844;8.830;2023-06-24T11:29:55;5.43;;;3.20;;
8247;SDS011;4164;49.844;8.830;2023-06-24T11:32:36;4.17;;;3.00;;
8247;SDS011;4164;49.844;8.830;2023-06-24T11:35:06;5.10;;;3.40;;
8247;SDS011;4164;49.844;8.830;2023-06-24T11:37:34;4.50;;;3.40;;
8247;SDS011;4164;49.844;8.830;2023-06-24T11:40:06;4.13;;;3.50;;
8247;SDS011;4164;49.844;8.830;2023-06-24T11:42:35;3.63;;;3.33;;
8247;SDS011;4164;49.844;8.830;2023-06-24T11:45:05;6.37;;;3.50;;
8247;SDS011;4164;49.844;8.830;2023-06-24T11:47:32;3.60;;;3.30;;
8247;SDS011;4164;49.844;8.830;2023-06-24T11:49:59;5.17;;;3.60;;
8247;SDS011;4164;49.844;8.830;2023-06-24T11:55:19;3.83;;;3.43;;
8247;SDS011;4164;49.844;8.830;2023-06-24T11:57:47;3.50;;;3.20;;
8247;SDS011;4164;49.844;8.830;2023-06-24T12:00:16;3.77;;;3.07;;
8247;SDS011;4164;49.844;8.830;2023-06-24T12:02:54;3.40;;;3.10;;
8247;SDS011;4164;49.844;8.830;2023-06-24T12:05:26;3.27;;;3.00;;
8247;SDS011;4164;49.844;8.830;2023-06-24T12:07:59;3.40;;;3.10;;
8247;SDS011;4164;49.844;8.830;2023-06-24T12:10:30;3.27;;;3.00;;
8247;SDS011;4164;49.844;8.830;2023-06-24T12:12:58;3.43;;;3.13;;
8247;SDS011;4164;49.844;8.830;2023-06-24T12:15:24;4.20;;;3.40;;
8247;SDS011;4164;49.844;8.830;2023-06-24T12:17:50;4.10;;;3.23;;
8247;SDS011;4164;49.844;8.830;2023-06-24T12:20:16;3.70;;;3.40;;
8247;SDS011;4164;49.844;8.830;2023-06-24T12:22:43;3.57;;;3.20;;
8247;SDS011;4164;49.844;8.830;2023-06-24T12:25:09;4.30;;;2.70;;
8247;SDS011;4164;49.844;8.830;2023-06-24T12:27:35;3.70;;;2.80;;
8247;SDS011;4164;49.844;8.830;2023-06-24T12:30:00;3.17;;;2.67;;
8247;SDS011;4164;49.844;8.830;2023-06-24T12:32:26;3.35;;;3.08;;
8247;SDS011;4164;49.844;8.830;2023-06-24T12:34:52;3.80;;;3.33;;
8247;SDS011;4164;49.844;8.830;2023-06-24T12:37:18;4.10;;;2.95;;
8247;SDS011;4164;49.844;8.830;2023-06-24T12:39:44;3.47;;;3.05;;
8247;SDS011;4164;49.844;8.830;2023-06-24T12:42:10;4.10;;;3.42;;
8247;SDS011;4164;49.844;8.830;2023-06-24T12:44:36;3.38;;;2.85;;
8247;SDS011;4164;49.844;8.830;2023-06-24T12:47:01;3.25;;;2.95;;
8247;SDS011;4164;49.844;8.830;2023-06-24T12:49:27;3.40;;;3.13;;
8247;SDS011;4164;49.844;8.830;2023-06-24T12:51:53;3.30;;;3.00;;
8247;SDS011;4164;49.844;8.830;2023-06-24T12:54:18;3.27;;;3.03;;
8247;SDS011;4164;49.844;8.830;2023-06-24T12:56:44;3.80;;;3.20;;
8247;SDS011;4164;49.844;8.830;2023-06-24T12:59:09;3.60;;;3.30;;
8247;SDS011;4164;49.844;8.830;2023-06-24T13:01:35;3.92;;;3.22;;
8247;SDS011;4164;49.844;8.830;2023-06-24T13:04:00;3.50;;;2.97;;
8247;SDS011;4164;49.844;8.830;2023-06-24T13:06:26;3.50;;;3.20;;
8247;SDS011;4164;49.844;8.830;2023-06-24T13:08:51;3.88;;;3.00;;
8247;SDS011;4164;49.844;8.830;2023-06-24T13:11:17;3.70;;;3.40;;
8247;SDS011;4164;49.844;8.830;2023-06-24T13:13:42;3.22;;;3.03;;
8247;SDS011;4164;49.844;8.830;2023-06-24T13:16:08;4.97;;;3.50;;
8247;SDS011;4164;49.844;8.830;2023-06-24T13:18:34;4.32;;;2.90;;
8247;SDS011;4164;49.844;8.830;2023-06-24T13:20:59;3.55;;;3.25;;
8247;SDS011;4164;49.844;8.830;2023-06-24T13:23:25;3.40;;;3.10;;
8247;SDS011;4164;49.844;8.830;2023-06-24T13:25:50;3.17;;;2.88;;
8247;SDS011;4164;49.844;8.830;2023-06-24T13:28:16;4.00;;;3.25;;
8247;SDS011;4164;49.844;8.830;2023-06-24T13:30:41;3.92;;;3.22;;
8247;SDS011;4164;49.844;8.830;2023-06-24T13:33:07;3.85;;;3.08;;
8247;SDS011;4164;49.844;8.830;2023-06-24T13:35:33;4.68;;;3.42;;
8247;SDS011;4164;49.844;8.830;2023-06-24T13:37:58;3.85;;;3.47;;
8247;SDS011;4164;49.844;8.830;2023-06-24T13:40:24;6.07;;;3.33;;
8247;SDS011;4164;49.844;8.830;2023-06-24T13:42:50;4.85;;;3.50;;
8247;SDS011;4164;49.844;8.830;2023-06-24T13:45:15;3.92;;;3.63;;
8247;SDS011;4164;49.844;8.830;2023-06-24T13:47:41;3.77;;;3.47;;
8247;SDS011;4164;49.844;8.830;2023-06-24T13:50:06;4.78;;;4.10;;
8247;SDS011;4164;49.844;8.830;2023-06-24T13:52:32;4.22;;;3.38;;
8247;SDS011;4164;49.844;8.830;2023-06-24T13:54:58;3.83;;;3.53;;
8247;SDS011;4164;49.844;8.830;2023-06-24T13:57:24;4.20;;;3.80;;
8247;SDS011;4164;49.844;8.830;2023-06-24T13:59:50;4.37;;;3.20;;
8247;SDS011;4164;49.844;8.830;2023-06-24T14:02:15;5.33;;;3.67;;
8247;SDS011;4164;49.844;8.830;2023-06-24T14:04:41;4.00;;;3.70;;
8247;SDS011;4164;49.844;8.830;2023-06-24T14:07:06;5.87;;;4.00;;
8247;SDS011;4164;49.844;8.830;2023-06-24T14:09:33;4.23;;;3.87;;
8247;SDS011;4164;49.844;8.830;2023-06-24T14:11:59;5.10;;;3.87;;
8247;SDS011;4164;49.844;8.830;2023-06-24T14:14:24;4.00;;;3.60;;
8247;SDS011;4164;49.844;8.830;2023-06-24T14:16:50;4.37;;;3.97;;
8247;SDS011;4164;49.844;8.830;2023-06-24T14:19:15;4.40;;;3.50;;
8247;SDS011;4164;49.844;8.830;2023-06-24T14:21:41;4.90;;;3.93;;
8247;SDS011;4164;49.844;8.830;2023-06-24T14:24:07;4.47;;;4.07;;
8247;SDS011;4164;49.844;8.830;2023-06-24T14:26:35;4.60;;;3.97;;
8247;SDS011;4164;49.844;8.830;2023-06-24T14:29:01;4.03;;;3.67;;
8247;SDS011;4164;49.844;8.830;2023-06-24T14:31:26;4.57;;;3.88;;
8247;SDS011;4164;49.844;8.830;2023-06-24T14:33:52;3.83;;;3.53;;
8247;SDS011;4164;49.844;8.830;2023-06-24T14:36:18;4.25;;;3.85;;
8247;SDS011;4164;49.844;8.830;2023-06-24T14:38:43;3.85;;;3.50;;
8247;SDS011;4164;49.844;8.830;2023-06-24T14:41:09;5.35;;;3.63;;
8247;SDS011;4164;49.844;8.830;2023-06-24T14:43:35;4.38;;;3.33;;
8247;SDS011;4164;49.844;8.830;2023-06-24T14:46:00;4.13;;;3.83;;
8247;SDS011;4164;49.844;8.830;2023-06-24T14:48:27;3.92;;;3.40;;
8247;SDS011;4164;49.844;8.830;2023-06-24T14:50:52;3.92;;;3.63;;
8247;SDS011;4164;49.844;8.830;2023-06-24T14:53:18;7.03;;;3.63;;
8247;SDS011;4164;49.844;8.830;2023-06-24T14:55:44;3.90;;;3.50;;
8247;SDS011;4164;49.844;8.830;2023-06-24T14:58:10;3.80;;;3.50;;
8247;SDS011;4164;49.844;8.830;2023-06-24T15:00:35;3.75;;;3.45;;
8247;SDS011;4164;49.844;8.830;2023-06-24T15:03:01;4.10;;;3.70;;
8247;SDS011;4164;49.844;8.830;2023-06-24T15:05:27;4.28;;;3.75;;
8247;SDS011;4164;49.844;8.830;2023-06-24T15:07:52;3.70;;;3.40;;
8247;SDS011;4164;49.844;8.830;2023-06-24T15:10:18;3.60;;;3.30;;
8247;SDS011;4164;49.844;8.830;2023-06-24T15:12:43;3.75;;;3.33;;
8247;SDS011;4164;49.844;8.830;2023-06-24T15:15:09;4.93;;;4.22;;
8247;SDS011;4164;49.844;8.830;2023-06-24T15:17:35;5.30;;;3.75;;
8247;SDS011;4164;49.844;8.830;2023-06-24T15:20:04;4.27;;;3.87;;
8247;SDS011;4164;49.844;8.830;2023-06-24T15:22:32;3.90;;;3.60;;
8247;SDS011;4164;49.844;8.830;2023-06-24T15:24:57;6.00;;;3.90;;
8247;SDS011;4164;49.844;8.830;2023-06-24T15:27:23;5.23;;;3.73;;
8247;SDS011;4164;49.844;8.830;2023-06-24T15:29:48;4.40;;;4.00;;
8247;SDS011;4164;49.844;8.830;2023-06-24T15:32:14;7.13;;;4.37;;